Data for 06/07/2015

Time Sea-Level Adjusted Pressure Absolute Pressure Temperature Relative Humidity Dew Point   
(mb) (inHg) (mb) (inHg) (C) (F) (%) (C) (F)
00:05 1019 30.09 848 25.04 16.2 61.2 53 6.8 44.2
00:10 1019 30.09 848 25.04 15.8 60.4 57 7.3 45.2
00:15 1019 30.09 848 25.04 15 59 60 7.3 45.2
00:20 1019 30.09 848 25.04 14.2 57.5 61 6.9 44.3
00:25 1019 30.09 848 25.04 13.9 56.9 62 6.7 44
00:30 1019 30.09 848 25.04 13.9 57 61 6.6 43.9
00:35 1019 30.09 848 25.04 14 57.2 61 6.7 44.1
00:40 1019 30.09 848 25.04 14 57.3 61 6.7 44.1
00:45 1019 30.09 848 25.04 14 57.2 61 6.7 44
00:50 1019 30.09 848 25.04 14.1 57.4 62 7 44.6
00:55 1019 30.09 848 25.04 14.3 57.7 60 6.7 44
01:00 1019 30.09 848 25.04 14.1 57.4 61 6.8 44.2
01:05 1019 30.09 848 25.04 14 57.3 60 6.6 43.8
01:10 1019 30.09 848 25.04 14 57.3 61 6.6 43.9
01:15 1019 30.09 848 25.04 14.1 57.3 61 6.6 43.9
01:20 1019 30.09 848 25.04 13.9 57 61 6.6 44
01:25 1019 30.09 848 25.04 13.9 57.1 61 6.5 43.8
01:30 1019 30.09 848 25.04 14.1 57.4 60 6.6 43.8
01:35 1019 30.09 848 25.04 14.1 57.4 60 6.6 43.9
01:40 1019 30.09 848 25.04 13.9 57 61 6.6 43.8
01:45 1019 30.09 848 25.04 13.7 56.7 61 6.4 43.5
01:50 1019 30.09 848 25.04 13.7 56.6 61 6.3 43.3
01:55 1019 30.09 848 25.04 13.7 56.7 61 6.3 43.3
02:00 1019 30.09 848 25.04 13.8 56.9 60 6.2 43.1
02:05 1019 30.09 848 25.04 13.7 56.6 60 6.2 43.1
02:10 1019 30.09 848 25.04 13.7 56.7 59 6 42.8
02:15 1019 30.09 848 25.04 13.9 56.9 60 6.3 43.4
02:20 1019 30.09 848 25.04 13.9 56.9 61 6.5 43.7
02:25 1019 30.09 848 25.04 13.7 56.7 62 6.6 43.8
02:30 1019 30.09 848 25.04 13.6 56.5 63 6.7 44.1
02:35 1019 30.09 848 25.04 13.7 56.6 63 6.8 44.2
02:40 1019 30.09 849 25.07 13.8 56.9 62 6.7 44
02:45 1019 30.09 849 25.07 14.2 57.5 61 6.8 44.2
02:50 1019 30.09 849 25.07 14.5 58.2 60 6.9 44.4
02:55 1019 30.09 849 25.07 14.3 57.7 61 6.9 44.5
03:00 1019 30.09 849 25.07 13.9 57 62 6.7 44.1
03:05 1019 30.09 849 25.07 14 57.2 61 6.7 44.1
03:10 1019 30.09 849 25.07 14 57.2 62 6.8 44.3
03:15 1019 30.09 849 25.07 13.9 57.1 61 6.7 44
03:20 1020 30.12 849 25.07 14 57.2 60 6.5 43.6
03:25 1020 30.12 849 25.07 14.2 57.6 59 6.4 43.5
03:30 1020 30.12 849 25.07 14.4 57.9 59 6.4 43.6
03:35 1020 30.12 849 25.07 14.3 57.8 59 6.6 43.8
03:40 1020 30.12 849 25.07 14 57.3 60 6.4 43.6
03:45 1020 30.12 849 25.07 13.7 56.7 61 6.4 43.5
03:50 1020 30.12 849 25.07 13.6 56.4 64 6.9 44.4
03:55 1020 30.12 849 25.07 13.6 56.6 64 7 44.6
04:00 1020 30.12 849 25.07 13.7 56.7 64 7.1 44.8
04:05 1020 30.12 849 25.07 13.8 56.8 64 7.2 44.9
04:10 1020 30.12 849 25.07 13.9 56.9 64 7.2 45
04:15 1020 30.12 849 25.07 13.9 57 64 7.2 45
04:20 1020 30.12 849 25.07 13.7 56.6 65 7.2 45
04:25 1020 30.12 849 25.07 13.6 56.4 66 7.3 45.2
04:30 1020 30.12 849 25.07 13.5 56.2 66 7.3 45.2
04:35 1020 30.12 849 25.07 13.6 56.4 65 7.3 45.1
04:40 1020 30.12 849 25.07 13.7 56.6 65 7.2 45
04:45 1020 30.12 849 25.07 13.7 56.6 65 7.2 45
04:50 1020 30.12 849 25.07 13.6 56.5 65 7.3 45.1
04:55 1020 30.12 849 25.07 13.6 56.5 65 7.2 45
05:00 1020 30.12 849 25.07 13.7 56.6 64 7.1 44.7
05:05 1020 30.12 849 25.07 13.8 56.8 62 6.6 44
05:10 1020 30.12 849 25.07 13.9 56.9 60 6.3 43.3
05:15 1020 30.12 849 25.07 13.8 56.9 62 6.6 43.9
05:20 1020 30.12 849 25.07 13.4 56.2 65 7 44.6
05:25 1020 30.12 850 25.1 13.3 55.9 64 6.8 44.2
05:30 1020 30.12 850 25.1 13.5 56.2 64 6.9 44.3
05:35 1020 30.12 850 25.1 13.6 56.5 63 6.7 44.1
05:40 1020 30.12 850 25.1 13.9 57 62 6.7 44.1
05:45 1021 30.15 850 25.1 14.2 57.6 62 7 44.6
05:50 1021 30.15 850 25.1 14.2 57.6 62 7 44.7
05:55 1021 30.15 850 25.1 14.3 57.8 62 7.2 45
06:00 1021 30.15 850 25.1 14.3 57.7 64 7.5 45.5
06:05 1021 30.15 850 25.1 14.3 57.7 63 7.4 45.4
06:10 1021 30.15 850 25.1 14.4 57.9 62 7.3 45.2
06:15 1021 30.15 850 25.1 14.8 58.6 60 7.3 45.1
06:20 1021 30.15 850 25.1 15.2 59.4 59 7.3 45.2
06:25 1021 30.15 850 25.1 15.6 60.2 57 7.3 45.1
06:30 1021 30.15 850 25.1 16 60.8 57 7.6 45.6
06:35 1021 30.15 850 25.1 16.3 61.3 56 7.4 45.4
06:40 1021 30.15 850 25.1 16 60.8 58 7.7 45.9
06:45 1021 30.15 850 25.1 16.4 61.5 55 7.4 45.2
06:50 1021 30.15 850 25.1 16.3 61.4 57 7.9 46.3
06:55 1021 30.15 850 25.1 15.8 60.5 59 7.8 46.1
07:00 1021 30.15 850 25.1 16.3 61.3 56 7.4 45.4
07:05 1021 30.15 850 25.1 16.6 61.9 56 7.8 46.1
07:10 1021 30.15 850 25.1 16.9 62.5 54 7.6 45.6
07:15 1021 30.15 850 25.1 17.4 63.2 52 7.6 45.7
07:20 1021 30.15 850 25.1 17.9 64.3 51 7.9 46.2
07:25 1021 30.15 850 25.1 17.9 64.2 52 7.9 46.3
07:30 1021 30.15 850 25.1 17.7 63.8 51 7.4 45.4
07:35 1021 30.15 850 25.1 17.7 63.9 51 7.5 45.6
07:40 1021 30.15 850 25.1 17.9 64.2 50 7.5 45.5
07:45 1021 30.15 851 25.13 18.1 64.6 51 7.9 46.2
07:50 1021 30.15 850 25.1 17.4 63.3 51 7.4 45.3
07:55 1021 30.15 850 25.1 17.9 64.2 49 7.2 44.9
08:00 1021 30.15 850 25.1 18.5 65.3 47 7 44.6
08:05 1021 30.15 850 25.1 18.2 64.7 49 7.5 45.5
08:10 1021 30.15 850 25.1 17.8 64 49 6.9 44.5
08:15 1021 30.15 850 25.1 18.4 65.1 46 6.7 44
08:20 1021 30.15 850 25.1 19.1 66.4 45 6.9 44.5
08:25 1021 30.15 850 25.1 18.8 65.8 45 6.9 44.3
08:30 1021 30.15 850 25.1 19.3 66.8 43 6.7 44
08:35 1021 30.15 850 25.1 19.4 66.9 45 7.3 45.1
08:40 1021 30.15 850 25.1 19.6 67.3 42 6.4 43.6
08:45 1021 30.15 850 25.1 19.6 67.3 43 6.8 44.2
08:50 1021 30.15 850 25.1 19.9 67.8 43 7 44.6
08:55 1021 30.15 850 25.1 20.3 68.5 42 7.1 44.8
09:00 1021 30.15 850 25.1 19.7 67.5 43 7 44.7
09:05 1021 30.15 850 25.1 19.9 67.8 41 6.5 43.7
09:10 1021 30.15 851 25.13 19.8 67.7 42 6.7 44
09:15 1021 30.15 851 25.13 20.4 68.7 41 6.8 44.3
09:20 1021 30.15 851 25.13 21.5 70.7 38 6.7 44
09:25 1021 30.15 851 25.13 21.5 70.7 39 7 44.6
09:30 1021 30.15 851 25.13 21.2 70.2 38 6.5 43.7
09:35 1021 30.15 851 25.13 21.2 70.1 40 7.3 45.1
09:40 1021 30.15 851 25.13 21 69.7 37 6 42.8
09:45 1021 30.15 851 25.13 21.4 70.6 37 6.2 43.2
09:50 1021 30.15 851 25.13 21.5 70.8 38 6.7 44.1
09:55 1021 30.15 850 25.1 21.6 70.8 38 6.6 44
10:00 1021 30.15 850 25.1 22.2 72 35 6.1 43
10:05 1021 30.15 850 25.1 22.4 72.3 35 6.6 43.8
10:10 1021 30.15 850 25.1 22.7 72.9 35 6.8 44.2
10:15 1021 30.15 850 25.1 22.7 72.8 33 5.9 42.7
10:20 1021 30.15 850 25.1 23.5 74.3 32 5.9 42.6
10:25 1021 30.15 850 25.1 23.3 74 33 6.3 43.3
10:30 1021 30.15 850 25.1 23.3 73.9 34 6.6 43.8
10:35 1021 30.15 850 25.1 23.2 73.8 34 6.7 44.1
10:40 1021 30.15 850 25.1 23.4 74.2 32 6.2 43.2
10:45 1021 30.15 850 25.1 23.8 74.8 32 6.1 43.1
10:50 1021 30.15 850 25.1 24.2 75.6 31 6.1 43
10:55 1021 30.15 850 25.1 24.3 75.7 30 6 42.8
11:00 1021 30.15 850 25.1 23.8 74.9 32 6.3 43.3
11:05 1021 30.15 850 25.1 24.1 75.4 29 5.3 41.5
11:10 1021 30.15 850 25.1 24.3 75.8 31 6.2 43.2
11:15 1021 30.15 850 25.1 24.1 75.4 31 6.1 42.9
11:20 1021 30.15 850 25.1 24.8 76.6 29 5.6 42.1
11:25 1021 30.15 850 25.1 24.9 76.8 29 5.9 42.6
11:30 1021 30.15 850 25.1 24.3 75.7 30 6 42.9
11:35 1021 30.15 850 25.1 24.2 75.5 30 5.6 42
11:40 1021 30.15 850 25.1 24.6 76.2 27 4.8 40.7
11:45 1021 30.15 850 25.1 24.8 76.6 27 4.9 40.9
11:50 1021 30.15 850 25.1 25 77 27 4.8 40.6
11:55 1021 30.15 850 25.1 24 75.1 29 4.9 40.9
12:00 1021 30.15 850 25.1 24.5 76.1 29 5.6 42
12:05 1021 30.15 850 25.1 24.8 76.7 27 5.1 41.1
12:10 1021 30.15 850 25.1 25.4 77.7 28 5.6 42
12:15 1021 30.15 850 25.1 25.6 78 27 5.4 41.7
12:20 1021 30.15 850 25.1 25.9 78.7 26 5.5 41.9
12:25 1021 30.15 850 25.1 25.9 78.7 26 5.4 41.8
12:30 1021 30.15 850 25.1 25.5 77.9 25 4.5 40.1
12:35 1021 30.15 850 25.1 25.5 77.9 24 3.8 38.9
12:40 1021 30.15 850 25.1 25.5 78 26 5 41
12:45 1021 30.15 850 25.1 25.4 77.7 24 3.8 38.8
12:50 1021 30.15 850 25.1 25.5 77.8 24 3.8 38.8
12:55 1021 30.15 850 25.1 26 78.9 24 4 39.3
13:00 1021 30.15 850 25.1 26 78.8 23 3.4 38.1
13:05 1021 30.15 850 25.1 25.9 78.6 24 3.9 39.1
13:10 1021 30.15 850 25.1 25.5 78 22 2.3 36.1
13:15 1021 30.15 850 25.1 26 78.7 19 1 33.7
13:20 1021 30.15 850 25.1 26.1 79 19 1.1 33.9
13:25 1021 30.15 850 25.1 26.5 79.6 22 3.4 38
13:30 1021 30.15 850 25.1 26.1 78.9 22 3 37.4
13:35 1021 30.15 850 25.1 26.3 79.3 22 3.1 37.5
13:40 1021 30.15 850 25.1 26.7 80 20 2 35.6
13:45 1021 30.15 850 25.1 26.6 79.8 21 2.6 36.7
13:50 1021 30.15 850 25.1 26.3 79.4 21 2.3 36.1
13:55 1021 30.15 850 25.1 26.2 79.1 22 2.9 37.3
14:00 1021 30.15 850 25.1 26.2 79.1 23 3.6 38.4
14:05 1020 30.12 850 25.1 26.4 79.5 22 3.1 37.6
14:10 1021 30.15 850 25.1 26.4 79.5 22 3.1 37.6
14:15 1021 30.15 850 25.1 26.2 79.2 22 3 37.5
14:20 1020 30.12 850 25.1 26.5 79.7 22 3.6 38.5
14:25 1020 30.12 850 25.1 26.5 79.7 22 3 37.5
14:30 1020 30.12 850 25.1 26.1 79 23 3.7 38.7
14:35 1021 30.15 850 25.1 25.6 78 22 2.7 36.9
14:40 1020 30.12 850 25.1 26.3 79.4 22 3.2 37.8
14:45 1020 30.12 850 25.1 26.5 79.8 21 3 37.4
14:50 1020 30.12 850 25.1 26.8 80.2 22 3.7 38.7
14:55 1020 30.12 850 25.1 26.6 79.9 22 3.7 38.6
15:00 1020 30.12 850 25.1 26.2 79.1 21 2.6 36.7
15:05 1020 30.12 849 25.07 26.6 79.8 22 3.7 38.6
15:10 1020 30.12 849 25.07 26.4 79.5 22 3 37.4
15:15 1020 30.12 850 25.1 26.7 80 22 3.2 37.7
15:20 1020 30.12 849 25.07 26.6 79.8 22 3.3 37.9
15:25 1020 30.12 849 25.07 26.6 79.8 21 3 37.4
15:30 1020 30.12 849 25.07 26.6 79.8 20 2.3 36.1
15:35 1020 30.12 849 25.07 26.3 79.3 20 2.1 35.7
15:40 1020 30.12 849 25.07 25.7 78.3 23 3.3 38
15:45 1020 30.12 849 25.07 25.5 78 24 3.5 38.4
15:50 1020 30.12 849 25.07 25.5 77.9 23 3.3 37.9
15:55 1020 30.12 849 25.07 25.8 78.4 24 4.1 39.3
16:00 1020 30.12 849 25.07 25.5 78 24 3.5 38.4
16:05 1020 30.12 849 25.07 25 77 26 4.1 39.4
16:10 1020 30.12 849 25.07 24.9 76.9 25 3.9 39
16:15 1020 30.12 849 25.07 25.5 77.8 23 2.9 37.2
16:20 1020 30.12 849 25.07 26.1 79 23 3.5 38.3
16:25 1020 30.12 849 25.07 26.2 79.2 23 4 39.3
16:30 1020 30.12 849 25.07 26.2 79.2 24 4.2 39.5
16:35 1020 30.12 849 25.07 26.2 79.2 23 4 39.1
16:40 1020 30.12 849 25.07 26.5 79.7 24 4.4 39.9
16:45 1020 30.12 849 25.07 26.4 79.6 25 4.9 40.7
16:50 1020 30.12 849 25.07 26.8 80.3 22 3.9 39
16:55 1020 30.12 849 25.07 26.2 79.1 23 3.8 38.8
17:00 1020 30.12 849 25.07 25.8 78.4 25 4.3 39.8
17:05 1020 30.12 849 25.07 25.7 78.3 26 5 41
17:10 1020 30.12 849 25.07 25 77 26 4.3 39.7
17:15 1020 30.12 849 25.07 25.3 77.5 24 3.8 38.8
17:20 1020 30.12 849 25.07 25.2 77.3 26 4.4 39.9
17:25 1020 30.12 849 25.07 24.4 75.8 27 4.4 40
17:30 1020 30.12 849 25.07 24.4 75.9 26 3.7 38.7
17:35 1020 30.12 849 25.07 24.8 76.6 25 3.9 39.1
17:40 1020 30.12 849 25.07 25 77 25 4.1 39.4
17:45 1020 30.12 849 25.07 24.9 76.7 25 3.6 38.5
17:50 1020 30.12 849 25.07 25 77.1 24 3.6 38.5
17:55 1020 30.12 849 25.07 25.1 77.3 27 5.3 41.5
18:00 1020 30.12 849 25.07 24.5 76.1 27 4.6 40.2
18:05 1020 30.12 849 25.07 24.9 76.9 27 5 41
18:10 1020 30.12 849 25.07 25 77 26 4.7 40.4
18:15 1020 30.12 849 25.07 24.6 76.3 27 4.9 40.7
18:20 1020 30.12 849 25.07 24.3 75.7 30 5.6 42.1
18:25 1020 30.12 849 25.07 23.9 74.9 29 4.8 40.6
18:30 1020 30.12 849 25.07 23.8 74.8 31 5.9 42.5
18:35 1020 30.12 849 25.07 23.8 74.8 29 5 40.9
18:40 1020 30.12 849 25.07 23.6 74.4 31 5.7 42.3
18:45 1020 30.12 849 25.07 23.6 74.4 31 5.7 42.3
18:50 1020 30.12 849 25.07 23.3 74 32 5.9 42.7
18:55 1020 30.12 849 25.07 23.3 73.9 32 5.9 42.6
19:00 1020 30.12 849 25.07 23.2 73.7 32 5.9 42.6
19:05 1020 30.12 849 25.07 23.2 73.7 32 5.9 42.7
19:10 1020 30.12 849 25.07 23.1 73.6 31 5.4 41.7
19:15 1020 30.12 849 25.07 23.1 73.6 32 5.7 42.3
19:20 1020 30.12 849 25.07 23.1 73.5 32 5.6 42.1
19:25 1020 30.12 849 25.07 23 73.4 33 6.2 43.1
19:30 1020 30.12 849 25.07 22.9 73.2 33 6.1 43.1
19:35 1020 30.12 849 25.07 22.8 73 33 6.1 42.9
19:40 1020 30.12 849 25.07 22.6 72.7 35 6.6 43.9
19:45 1020 30.12 849 25.07 22.3 72.1 37 6.9 44.5
19:50 1020 30.12 849 25.07 22 71.6 43 8.9 48
19:55 1020 30.12 849 25.07 21.8 71.3 39 7.4 45.3
20:00 1020 30.12 849 25.07 21.6 70.9 40 7.8 46
20:05 1020 30.12 849 25.07 21.3 70.4 44 8.6 47.5
20:10 1020 30.12 849 25.07 21 69.7 43 8 46.3
20:15 1020 30.12 849 25.07 20.7 69.3 43 7.7 45.9
20:20 1020 30.12 849 25.07 20.4 68.7 46 8.7 47.6
20:25 1020 30.12 849 25.07 20.2 68.3 44 7.8 46.1
20:30 1020 30.12 849 25.07 19.9 67.7 46 7.9 46.3
20:35 1020 30.12 849 25.07 19.6 67.3 48 8.6 47.4
20:40 1020 30.12 849 25.07 19.2 66.6 49 8.3 46.9
20:45 1020 30.12 849 25.07 18.9 66.1 46 7.3 45.1
20:50 1020 30.12 849 25.07 19 66.1 47 7.6 45.8
20:55 1020 30.12 849 25.07 18.9 66 46 7.1 44.7
21:00 1020 30.12 849 25.07 18.9 66 45 6.9 44.4
21:05 1020 30.12 850 25.1 18.9 65.9 45 6.9 44.4
21:10 1020 30.12 850 25.1 18.7 65.7 46 7.1 44.8
21:15 1020 30.12 850 25.1 18.4 65.2 47 6.9 44.4
21:20 1020 30.12 850 25.1 18.4 65 47 7 44.6
21:25 1020 30.12 850 25.1 18.1 64.6 46 6.5 43.7
21:30 1020 30.12 850 25.1 18 64.4 47 6.5 43.7
21:35 1021 30.15 850 25.1 17.9 64.2 47 6.5 43.6
21:40 1021 30.15 850 25.1 17.7 63.9 47 6.5 43.7
21:45 1020 30.12 850 25.1 17.5 63.6 48 6.5 43.8
21:50 1020 30.12 850 25.1 17.7 63.8 47 6.4 43.6
21:55 1020 30.12 850 25.1 17.6 63.8 47 6.4 43.5
22:00 1020 30.12 850 25.1 17.6 63.7 47 6.2 43.2
22:05 1020 30.12 850 25.1 17.7 63.8 47 6.4 43.6
22:10 1020 30.12 850 25.1 17.6 63.6 48 6.4 43.5
22:15 1020 30.12 850 25.1 17.3 63.2 49 6.5 43.7
22:20 1020 30.12 850 25.1 17.2 62.9 49 6.5 43.7
22:25 1020 30.12 850 25.1 17.1 62.7 50 6.6 43.9
22:30 1021 30.15 850 25.1 16.8 62.3 50 6.5 43.8
22:35 1021 30.15 850 25.1 16.7 62 51 6.5 43.6
22:40 1021 30.15 850 25.1 16.7 62 50 6.4 43.5
22:45 1021 30.15 850 25.1 16.7 62 50 6.3 43.4
22:50 1021 30.15 850 25.1 16.6 61.9 50 6.2 43.1
22:55 1021 30.15 850 25.1 16.7 62 49 6 42.9
23:00 1021 30.15 850 25.1 16.6 61.8 49 6 42.8
23:05 1021 30.15 850 25.1 16.5 61.8 49 6 42.7
23:10 1021 30.15 850 25.1 16.6 61.9 50 6.4 43.4
23:15 1021 30.15 850 25.1 16.9 62.5 48 5.9 42.5
23:20 1021 30.15 850 25.1 16.8 62.3 48 5.9 42.7
23:25 1021 30.15 850 25.1 16.6 61.9 48 5.7 42.2
23:30 1021 30.15 850 25.1 16.6 61.8 48 5.7 42.3
23:35 1021 30.15 850 25.1 16.7 62 47 5.5 41.8
23:40 1021 30.15 850 25.1 16.8 62.3 48 5.8 42.4
23:45 1021 30.15 850 25.1 16.8 62.2 52 7 44.7
23:50 1021 30.15 850 25.1 17 62.6 47 5.8 42.5
23:55 1021 30.15 850 25.1 16.7 62 50 6.4 43.5
24:00 1021 30.15 850 25.1 16.4 61.6 51 6.3 43.3